sensor_id;sensor_type;location;lat;lon;timestamp;P1;durP1;ratioP1;P2;durP2;ratioP2
7013;SDS011;3547;50.774;12.918;2022-11-27T00:01:15;17.27;;;5.17;;
7013;SDS011;3547;50.774;12.918;2022-11-27T00:03:43;10.10;;;4.10;;
7013;SDS011;3547;50.774;12.918;2022-11-27T00:06:13;7.53;;;4.47;;
7013;SDS011;3547;50.774;12.918;2022-11-27T00:08:42;9.17;;;4.40;;
7013;SDS011;3547;50.774;12.918;2022-11-27T00:11:10;12.30;;;4.20;;
7013;SDS011;3547;50.774;12.918;2022-11-27T00:13:42;9.27;;;3.97;;
7013;SDS011;3547;50.774;12.918;2022-11-27T00:16:08;7.77;;;4.47;;
7013;SDS011;3547;50.774;12.918;2022-11-27T00:18:35;7.17;;;4.67;;
7013;SDS011;3547;50.774;12.918;2022-11-27T00:21:02;15.93;;;4.87;;
7013;SDS011;3547;50.774;12.918;2022-11-27T00:23:34;6.20;;;3.93;;
7013;SDS011;3547;50.774;12.918;2022-11-27T00:26:01;5.57;;;4.10;;
7013;SDS011;3547;50.774;12.918;2022-11-27T00:28:28;8.10;;;4.80;;
7013;SDS011;3547;50.774;12.918;2022-11-27T00:31:02;9.87;;;4.67;;
7013;SDS011;3547;50.774;12.918;2022-11-27T00:33:30;5.27;;;4.43;;
7013;SDS011;3547;50.774;12.918;2022-11-27T00:36:00;7.10;;;4.03;;
7013;SDS011;3547;50.774;12.918;2022-11-27T00:38:30;7.50;;;4.20;;
7013;SDS011;3547;50.774;12.918;2022-11-27T00:41:07;8.13;;;4.30;;
7013;SDS011;3547;50.774;12.918;2022-11-27T00:43:36;8.03;;;4.47;;
7013;SDS011;3547;50.774;12.918;2022-11-27T00:46:03;8.57;;;4.50;;
7013;SDS011;3547;50.774;12.918;2022-11-27T00:48:30;6.60;;;4.70;;
7013;SDS011;3547;50.774;12.918;2022-11-27T00:50:57;7.40;;;5.20;;
7013;SDS011;3547;50.774;12.918;2022-11-27T00:53:29;8.23;;;5.10;;
7013;SDS011;3547;50.774;12.918;2022-11-27T00:55:56;6.97;;;4.80;;
7013;SDS011;3547;50.774;12.918;2022-11-27T00:58:23;14.50;;;5.20;;
7013;SDS011;3547;50.774;12.918;2022-11-27T01:00:53;8.03;;;4.30;;
7013;SDS011;3547;50.774;12.918;2022-11-27T01:03:27;12.17;;;5.37;;
7013;SDS011;3547;50.774;12.918;2022-11-27T01:05:54;6.27;;;5.10;;
7013;SDS011;3547;50.774;12.918;2022-11-27T01:08:21;10.23;;;4.57;;
7013;SDS011;3547;50.774;12.918;2022-11-27T01:10:51;5.60;;;4.10;;
7013;SDS011;3547;50.774;12.918;2022-11-27T01:13:21;7.07;;;4.03;;
7013;SDS011;3547;50.774;12.918;2022-11-27T01:15:58;9.00;;;4.63;;
7013;SDS011;3547;50.774;12.918;2022-11-27T01:18:33;8.20;;;4.50;;
7013;SDS011;3547;50.774;12.918;2022-11-27T01:21:00;10.93;;;4.30;;
7013;SDS011;3547;50.774;12.918;2022-11-27T01:23:27;8.40;;;5.10;;
7013;SDS011;3547;50.774;12.918;2022-11-27T01:25:54;6.80;;;3.97;;
7013;SDS011;3547;50.774;12.918;2022-11-27T01:28:23;5.97;;;4.27;;
7013;SDS011;3547;50.774;12.918;2022-11-27T01:30:49;9.27;;;4.37;;
7013;SDS011;3547;50.774;12.918;2022-11-27T01:33:16;5.43;;;3.70;;
7013;SDS011;3547;50.774;12.918;2022-11-27T01:35:42;8.03;;;3.90;;
7013;SDS011;3547;50.774;12.918;2022-11-27T01:41:39;7.97;;;3.17;;
7013;SDS011;3547;50.774;12.918;2022-11-27T01:49:33;6.07;;;4.00;;
7013;SDS011;3547;50.774;12.918;2022-11-27T01:54:39;5.10;;;3.87;;
7013;SDS011;3547;50.774;12.918;2022-11-27T01:57:17;4.90;;;3.13;;
7013;SDS011;3547;50.774;12.918;2022-11-27T01:59:47;6.37;;;4.10;;
7013;SDS011;3547;50.774;12.918;2022-11-27T02:02:15;9.07;;;3.93;;
7013;SDS011;3547;50.774;12.918;2022-11-27T02:04:42;9.93;;;4.20;;
7013;SDS011;3547;50.774;12.918;2022-11-27T02:10:40;11.23;;;5.80;;
7013;SDS011;3547;50.774;12.918;2022-11-27T02:15:59;9.63;;;4.70;;
7013;SDS011;3547;50.774;12.918;2022-11-27T02:19:06;3.80;;;3.07;;
7013;SDS011;3547;50.774;12.918;2022-11-27T02:21:45;6.17;;;4.13;;
7013;SDS011;3547;50.774;12.918;2022-11-27T02:29:31;4.30;;;3.13;;
7013;SDS011;3547;50.774;12.918;2022-11-27T02:32:14;5.10;;;3.23;;
7013;SDS011;3547;50.774;12.918;2022-11-27T02:37:23;7.07;;;3.10;;
7013;SDS011;3547;50.774;12.918;2022-11-27T02:40:08;6.63;;;3.17;;
7013;SDS011;3547;50.774;12.918;2022-11-27T02:42:36;4.73;;;3.30;;
7013;SDS011;3547;50.774;12.918;2022-11-27T02:45:26;5.07;;;3.43;;
7013;SDS011;3547;50.774;12.918;2022-11-27T02:47:59;3.87;;;3.03;;
7013;SDS011;3547;50.774;12.918;2022-11-27T02:50:26;9.23;;;3.77;;
7013;SDS011;3547;50.774;12.918;2022-11-27T02:52:57;5.77;;;3.77;;
7013;SDS011;3547;50.774;12.918;2022-11-27T02:55:29;5.20;;;3.30;;
7013;SDS011;3547;50.774;12.918;2022-11-27T02:57:58;5.43;;;2.60;;
7013;SDS011;3547;50.774;12.918;2022-11-27T03:00:27;8.07;;;4.07;;
7013;SDS011;3547;50.774;12.918;2022-11-27T03:02:55;4.53;;;3.10;;
7013;SDS011;3547;50.774;12.918;2022-11-27T03:05:25;3.60;;;2.70;;
7013;SDS011;3547;50.774;12.918;2022-11-27T03:07:58;3.37;;;2.90;;
7013;SDS011;3547;50.774;12.918;2022-11-27T03:10:35;2.97;;;2.50;;
7013;SDS011;3547;50.774;12.918;2022-11-27T03:13:25;4.03;;;2.83;;
7013;SDS011;3547;50.774;12.918;2022-11-27T03:15:57;4.17;;;2.93;;
7013;SDS011;3547;50.774;12.918;2022-11-27T03:18:43;4.17;;;2.60;;
7013;SDS011;3547;50.774;12.918;2022-11-27T03:21:40;3.87;;;2.97;;
7013;SDS011;3547;50.774;12.918;2022-11-27T03:24:09;5.37;;;2.80;;
7013;SDS011;3547;50.774;12.918;2022-11-27T03:26:37;11.83;;;3.40;;
7013;SDS011;3547;50.774;12.918;2022-11-27T03:29:06;7.47;;;3.10;;
7013;SDS011;3547;50.774;12.918;2022-11-27T03:31:42;3.40;;;2.77;;
7013;SDS011;3547;50.774;12.918;2022-11-27T03:34:09;2.83;;;2.53;;
7013;SDS011;3547;50.774;12.918;2022-11-27T03:36:35;3.50;;;2.40;;
7013;SDS011;3547;50.774;12.918;2022-11-27T03:39:02;4.00;;;2.17;;
7013;SDS011;3547;50.774;12.918;2022-11-27T03:52:43;5.83;;;3.07;;
7013;SDS011;3547;50.774;12.918;2022-11-27T03:55:22;6.77;;;3.90;;
7013;SDS011;3547;50.774;12.918;2022-11-27T04:00:17;4.23;;;3.20;;
7013;SDS011;3547;50.774;12.918;2022-11-27T04:02:45;7.13;;;3.20;;
7013;SDS011;3547;50.774;12.918;2022-11-27T04:05:14;3.43;;;2.57;;
7013;SDS011;3547;50.774;12.918;2022-11-27T04:07:41;4.73;;;2.60;;
7013;SDS011;3547;50.774;12.918;2022-11-27T04:10:07;4.43;;;2.70;;
7013;SDS011;3547;50.774;12.918;2022-11-27T04:12:35;5.90;;;3.20;;
7013;SDS011;3547;50.774;12.918;2022-11-27T04:15:02;2.53;;;2.33;;
7013;SDS011;3547;50.774;12.918;2022-11-27T04:17:28;3.30;;;2.50;;
7013;SDS011;3547;50.774;12.918;2022-11-27T04:19:55;3.23;;;2.30;;
7013;SDS011;3547;50.774;12.918;2022-11-27T04:22:21;7.33;;;2.33;;
7013;SDS011;3547;50.774;12.918;2022-11-27T04:24:47;3.00;;;2.40;;
7013;SDS011;3547;50.774;12.918;2022-11-27T04:27:13;4.13;;;2.90;;
7013;SDS011;3547;50.774;12.918;2022-11-27T04:29:39;3.90;;;2.13;;
7013;SDS011;3547;50.774;12.918;2022-11-27T04:32:06;3.17;;;2.63;;
7013;SDS011;3547;50.774;12.918;2022-11-27T04:34:32;5.27;;;2.23;;
7013;SDS011;3547;50.774;12.918;2022-11-27T04:36:58;3.10;;;2.40;;
7013;SDS011;3547;50.774;12.918;2022-11-27T04:39:24;4.77;;;2.57;;
7013;SDS011;3547;50.774;12.918;2022-11-27T04:41:51;4.73;;;2.10;;
7013;SDS011;3547;50.774;12.918;2022-11-27T04:44:17;5.30;;;2.13;;
7013;SDS011;3547;50.774;12.918;2022-11-27T04:46:43;4.57;;;2.50;;
7013;SDS011;3547;50.774;12.918;2022-11-27T04:49:09;4.87;;;2.97;;
7013;SDS011;3547;50.774;12.918;2022-11-27T04:51:36;7.20;;;2.73;;
7013;SDS011;3547;50.774;12.918;2022-11-27T04:54:02;3.87;;;2.70;;
7013;SDS011;3547;50.774;12.918;2022-11-27T04:56:28;3.03;;;2.07;;
7013;SDS011;3547;50.774;12.918;2022-11-27T04:58:54;5.17;;;2.57;;
7013;SDS011;3547;50.774;12.918;2022-11-27T05:01:20;4.13;;;2.30;;
7013;SDS011;3547;50.774;12.918;2022-11-27T05:03:47;3.37;;;2.47;;
7013;SDS011;3547;50.774;12.918;2022-11-27T05:06:14;5.10;;;3.07;;
7013;SDS011;3547;50.774;12.918;2022-11-27T05:08:41;5.33;;;2.77;;
7013;SDS011;3547;50.774;12.918;2022-11-27T05:11:09;6.00;;;2.90;;
7013;SDS011;3547;50.774;12.918;2022-11-27T05:13:38;4.53;;;2.77;;
7013;SDS011;3547;50.774;12.918;2022-11-27T05:16:04;4.37;;;2.90;;
7013;SDS011;3547;50.774;12.918;2022-11-27T05:18:31;4.83;;;3.13;;
7013;SDS011;3547;50.774;12.918;2022-11-27T05:21:01;8.30;;;2.77;;
7013;SDS011;3547;50.774;12.918;2022-11-27T05:23:28;4.57;;;3.00;;
7013;SDS011;3547;50.774;12.918;2022-11-27T05:25:55;5.73;;;2.70;;
7013;SDS011;3547;50.774;12.918;2022-11-27T05:28:22;3.37;;;2.57;;
7013;SDS011;3547;50.774;12.918;2022-11-27T05:30:49;3.50;;;2.83;;
7013;SDS011;3547;50.774;12.918;2022-11-27T05:33:15;5.07;;;2.83;;
7013;SDS011;3547;50.774;12.918;2022-11-27T05:35:43;4.07;;;2.27;;
7013;SDS011;3547;50.774;12.918;2022-11-27T05:38:10;5.90;;;2.53;;
7013;SDS011;3547;50.774;12.918;2022-11-27T05:40:37;3.40;;;2.80;;
7013;SDS011;3547;50.774;12.918;2022-11-27T05:43:04;5.23;;;3.30;;
7013;SDS011;3547;50.774;12.918;2022-11-27T05:45:30;6.33;;;2.73;;
7013;SDS011;3547;50.774;12.918;2022-11-27T05:47:56;3.00;;;2.43;;
7013;SDS011;3547;50.774;12.918;2022-11-27T05:50:22;4.43;;;2.90;;
7013;SDS011;3547;50.774;12.918;2022-11-27T05:52:48;5.63;;;2.43;;
7013;SDS011;3547;50.774;12.918;2022-11-27T05:55:15;6.60;;;2.50;;
7013;SDS011;3547;50.774;12.918;2022-11-27T05:57:41;5.27;;;2.87;;
7013;SDS011;3547;50.774;12.918;2022-11-27T06:00:07;3.40;;;2.40;;
7013;SDS011;3547;50.774;12.918;2022-11-27T06:02:34;6.27;;;2.80;;
7013;SDS011;3547;50.774;12.918;2022-11-27T06:05:00;4.50;;;3.23;;
7013;SDS011;3547;50.774;12.918;2022-11-27T06:07:26;2.63;;;2.43;;
7013;SDS011;3547;50.774;12.918;2022-11-27T06:09:52;5.30;;;2.80;;
7013;SDS011;3547;50.774;12.918;2022-11-27T06:12:18;3.93;;;2.67;;
7013;SDS011;3547;50.774;12.918;2022-11-27T06:14:44;5.13;;;2.70;;
7013;SDS011;3547;50.774;12.918;2022-11-27T06:17:10;3.83;;;2.47;;
7013;SDS011;3547;50.774;12.918;2022-11-27T06:19:40;6.93;;;3.00;;
7013;SDS011;3547;50.774;12.918;2022-11-27T06:22:06;5.07;;;2.23;;
7013;SDS011;3547;50.774;12.918;2022-11-27T06:24:32;5.43;;;2.53;;
7013;SDS011;3547;50.774;12.918;2022-11-27T06:26:58;3.67;;;2.90;;
7013;SDS011;3547;50.774;12.918;2022-11-27T06:29:25;3.40;;;2.40;;
7013;SDS011;3547;50.774;12.918;2022-11-27T06:31:51;3.23;;;2.50;;
7013;SDS011;3547;50.774;12.918;2022-11-27T06:34:17;4.63;;;2.70;;
7013;SDS011;3547;50.774;12.918;2022-11-27T06:36:43;4.23;;;2.50;;
7013;SDS011;3547;50.774;12.918;2022-11-27T06:39:09;4.70;;;2.97;;
7013;SDS011;3547;50.774;12.918;2022-11-27T06:41:36;8.53;;;5.27;;
7013;SDS011;3547;50.774;12.918;2022-11-27T06:44:02;7.30;;;5.10;;
7013;SDS011;3547;50.774;12.918;2022-11-27T06:46:29;5.70;;;4.27;;
7013;SDS011;3547;50.774;12.918;2022-11-27T06:48:56;5.57;;;3.60;;
7013;SDS011;3547;50.774;12.918;2022-11-27T06:51:23;6.50;;;4.23;;
7013;SDS011;3547;50.774;12.918;2022-11-27T06:53:51;5.37;;;3.37;;
7013;SDS011;3547;50.774;12.918;2022-11-27T06:56:18;4.00;;;2.73;;
7013;SDS011;3547;50.774;12.918;2022-11-27T06:58:49;5.23;;;3.20;;
7013;SDS011;3547;50.774;12.918;2022-11-27T07:01:16;4.90;;;3.30;;
7013;SDS011;3547;50.774;12.918;2022-11-27T07:03:43;6.47;;;4.90;;
7013;SDS011;3547;50.774;12.918;2022-11-27T07:06:10;5.67;;;4.00;;
7013;SDS011;3547;50.774;12.918;2022-11-27T07:08:38;3.93;;;3.43;;
7013;SDS011;3547;50.774;12.918;2022-11-27T07:11:07;5.97;;;4.20;;
7013;SDS011;3547;50.774;12.918;2022-11-27T07:13:36;7.13;;;3.80;;
7013;SDS011;3547;50.774;12.918;2022-11-27T07:16:03;6.90;;;4.40;;
7013;SDS011;3547;50.774;12.918;2022-11-27T07:18:36;5.17;;;3.80;;
7013;SDS011;3547;50.774;12.918;2022-11-27T07:21:06;6.23;;;4.43;;
7013;SDS011;3547;50.774;12.918;2022-11-27T07:23:33;4.00;;;3.10;;
7013;SDS011;3547;50.774;12.918;2022-11-27T07:26:10;3.20;;;2.60;;
7013;SDS011;3547;50.774;12.918;2022-11-27T07:28:38;3.60;;;3.20;;
7013;SDS011;3547;50.774;12.918;2022-11-27T07:31:04;12.40;;;6.60;;
7013;SDS011;3547;50.774;12.918;2022-11-27T07:33:30;7.30;;;4.37;;
7013;SDS011;3547;50.774;12.918;2022-11-27T07:36:01;7.03;;;4.50;;
7013;SDS011;3547;50.774;12.918;2022-11-27T07:38:29;11.00;;;7.57;;
7013;SDS011;3547;50.774;12.918;2022-11-27T07:40:58;6.37;;;4.90;;
7013;SDS011;3547;50.774;12.918;2022-11-27T07:43:26;4.07;;;3.10;;
7013;SDS011;3547;50.774;12.918;2022-11-27T07:45:52;3.57;;;2.80;;
7013;SDS011;3547;50.774;12.918;2022-11-27T07:48:18;12.57;;;8.97;;
7013;SDS011;3547;50.774;12.918;2022-11-27T07:50:45;15.47;;;11.40;;
7013;SDS011;3547;50.774;12.918;2022-11-27T07:53:11;25.13;;;14.73;;
7013;SDS011;3547;50.774;12.918;2022-11-27T07:55:37;13.40;;;10.40;;
7013;SDS011;3547;50.774;12.918;2022-11-27T07:58:04;9.43;;;5.97;;
7013;SDS011;3547;50.774;12.918;2022-11-27T08:00:31;4.30;;;3.63;;
7013;SDS011;3547;50.774;12.918;2022-11-27T08:02:58;6.37;;;3.20;;
7013;SDS011;3547;50.774;12.918;2022-11-27T08:05:24;5.63;;;4.23;;
7013;SDS011;3547;50.774;12.918;2022-11-27T08:07:50;4.37;;;3.13;;
7013;SDS011;3547;50.774;12.918;2022-11-27T08:10:17;11.03;;;7.63;;
7013;SDS011;3547;50.774;12.918;2022-11-27T08:12:43;10.53;;;4.43;;
7013;SDS011;3547;50.774;12.918;2022-11-27T08:15:09;5.20;;;3.20;;
7013;SDS011;3547;50.774;12.918;2022-11-27T08:17:36;4.43;;;2.83;;
7013;SDS011;3547;50.774;12.918;2022-11-27T08:20:03;7.13;;;3.10;;
7013;SDS011;3547;50.774;12.918;2022-11-27T08:22:31;3.13;;;2.57;;
7013;SDS011;3547;50.774;12.918;2022-11-27T08:24:57;3.83;;;2.27;;
7013;SDS011;3547;50.774;12.918;2022-11-27T08:27:23;4.30;;;2.70;;
7013;SDS011;3547;50.774;12.918;2022-11-27T08:29:49;5.07;;;3.07;;
7013;SDS011;3547;50.774;12.918;2022-11-27T08:32:15;3.53;;;2.80;;
7013;SDS011;3547;50.774;12.918;2022-11-27T08:34:42;3.93;;;2.53;;
7013;SDS011;3547;50.774;12.918;2022-11-27T08:37:08;4.33;;;2.40;;
7013;SDS011;3547;50.774;12.918;2022-11-27T08:39:34;5.17;;;2.90;;
7013;SDS011;3547;50.774;12.918;2022-11-27T08:42:00;8.90;;;5.30;;
7013;SDS011;3547;50.774;12.918;2022-11-27T08:44:26;5.83;;;4.70;;
7013;SDS011;3547;50.774;12.918;2022-11-27T08:46:52;10.80;;;6.40;;
7013;SDS011;3547;50.774;12.918;2022-11-27T08:49:18;6.53;;;4.73;;
7013;SDS011;3547;50.774;12.918;2022-11-27T08:51:44;5.27;;;4.40;;
7013;SDS011;3547;50.774;12.918;2022-11-27T08:54:11;5.57;;;3.93;;
7013;SDS011;3547;50.774;12.918;2022-11-27T08:56:37;5.00;;;3.40;;
7013;SDS011;3547;50.774;12.918;2022-11-27T08:59:03;4.17;;;3.40;;
7013;SDS011;3547;50.774;12.918;2022-11-27T09:01:29;5.13;;;3.30;;
7013;SDS011;3547;50.774;12.918;2022-11-27T09:03:56;5.20;;;3.20;;
7013;SDS011;3547;50.774;12.918;2022-11-27T09:06:24;5.60;;;3.93;;
7013;SDS011;3547;50.774;12.918;2022-11-27T09:08:54;5.53;;;3.70;;
7013;SDS011;3547;50.774;12.918;2022-11-27T09:11:21;7.00;;;3.57;;
7013;SDS011;3547;50.774;12.918;2022-11-27T09:13:48;6.33;;;3.30;;
7013;SDS011;3547;50.774;12.918;2022-11-27T09:16:15;8.40;;;6.20;;
7013;SDS011;3547;50.774;12.918;2022-11-27T09:18:43;4.90;;;3.30;;
7013;SDS011;3547;50.774;12.918;2022-11-27T09:21:11;6.40;;;3.17;;
7013;SDS011;3547;50.774;12.918;2022-11-27T09:23:39;4.93;;;3.10;;
7013;SDS011;3547;50.774;12.918;2022-11-27T09:26:09;5.10;;;2.87;;
7013;SDS011;3547;50.774;12.918;2022-11-27T09:28:40;9.73;;;5.17;;
7013;SDS011;3547;50.774;12.918;2022-11-27T09:31:08;5.60;;;3.73;;
7013;SDS011;3547;50.774;12.918;2022-11-27T09:33:36;3.93;;;3.07;;
7013;SDS011;3547;50.774;12.918;2022-11-27T09:36:07;5.97;;;3.63;;
7013;SDS011;3547;50.774;12.918;2022-11-27T09:38:35;10.40;;;4.63;;
7013;SDS011;3547;50.774;12.918;2022-11-27T09:41:11;14.53;;;5.77;;
7013;SDS011;3547;50.774;12.918;2022-11-27T09:46:58;9.87;;;4.83;;
7013;SDS011;3547;50.774;12.918;2022-11-27T09:49:35;5.83;;;4.50;;
7013;SDS011;3547;50.774;12.918;2022-11-27T09:57:59;4.67;;;3.80;;
7013;SDS011;3547;50.774;12.918;2022-11-27T10:00:30;5.37;;;4.87;;
7013;SDS011;3547;50.774;12.918;2022-11-27T10:02:56;4.97;;;4.43;;
7013;SDS011;3547;50.774;12.918;2022-11-27T10:05:26;8.03;;;4.27;;
7013;SDS011;3547;50.774;12.918;2022-11-27T10:13:36;6.77;;;3.20;;
7013;SDS011;3547;50.774;12.918;2022-11-27T10:16:25;9.03;;;3.33;;
7013;SDS011;3547;50.774;12.918;2022-11-27T10:19:14;11.40;;;4.07;;
7013;SDS011;3547;50.774;12.918;2022-11-27T10:21:54;7.43;;;3.57;;
7013;SDS011;3547;50.774;12.918;2022-11-27T10:27:23;7.50;;;4.70;;
7013;SDS011;3547;50.774;12.918;2022-11-27T10:29:56;7.37;;;5.23;;
7013;SDS011;3547;50.774;12.918;2022-11-27T10:32:24;10.90;;;5.63;;
7013;SDS011;3547;50.774;12.918;2022-11-27T10:35:04;16.23;;;6.37;;
7013;SDS011;3547;50.774;12.918;2022-11-27T10:38:24;16.07;;;10.10;;
7013;SDS011;3547;50.774;12.918;2022-11-27T10:45:54;8.20;;;5.67;;
7013;SDS011;3547;50.774;12.918;2022-11-27T10:48:26;8.57;;;5.57;;
7013;SDS011;3547;50.774;12.918;2022-11-27T10:50:55;7.67;;;4.40;;
7013;SDS011;3547;50.774;12.918;2022-11-27T10:53:24;5.80;;;3.60;;
7013;SDS011;3547;50.774;12.918;2022-11-27T10:55:59;8.77;;;3.37;;
7013;SDS011;3547;50.774;12.918;2022-11-27T11:01:43;8.73;;;4.03;;
7013;SDS011;3547;50.774;12.918;2022-11-27T11:04:14;6.03;;;4.00;;
7013;SDS011;3547;50.774;12.918;2022-11-27T11:06:46;4.10;;;3.27;;
7013;SDS011;3547;50.774;12.918;2022-11-27T11:09:22;7.03;;;3.70;;
7013;SDS011;3547;50.774;12.918;2022-11-27T11:11:48;5.80;;;3.93;;
7013;SDS011;3547;50.774;12.918;2022-11-27T11:14:16;5.47;;;4.03;;
7013;SDS011;3547;50.774;12.918;2022-11-27T11:16:48;9.07;;;4.20;;
7013;SDS011;3547;50.774;12.918;2022-11-27T11:21:50;5.20;;;4.27;;
7013;SDS011;3547;50.774;12.918;2022-11-27T11:24:24;7.10;;;4.37;;
7013;SDS011;3547;50.774;12.918;2022-11-27T11:26:59;9.77;;;3.70;;
7013;SDS011;3547;50.774;12.918;2022-11-27T11:32:05;8.83;;;4.37;;
7013;SDS011;3547;50.774;12.918;2022-11-27T11:34:35;7.70;;;4.40;;
7013;SDS011;3547;50.774;12.918;2022-11-27T11:37:26;5.87;;;4.57;;
7013;SDS011;3547;50.774;12.918;2022-11-27T11:39:59;8.07;;;4.27;;
7013;SDS011;3547;50.774;12.918;2022-11-27T11:42:52;7.90;;;4.53;;
7013;SDS011;3547;50.774;12.918;2022-11-27T11:45:20;7.03;;;4.93;;
7013;SDS011;3547;50.774;12.918;2022-11-27T11:47:50;7.30;;;4.23;;
7013;SDS011;3547;50.774;12.918;2022-11-27T11:50:29;8.17;;;4.53;;
7013;SDS011;3547;50.774;12.918;2022-11-27T12:07:51;5.13;;;3.80;;
7013;SDS011;3547;50.774;12.918;2022-11-27T12:10:40;6.33;;;4.00;;
7013;SDS011;3547;50.774;12.918;2022-11-27T12:15:57;6.60;;;5.33;;
7013;SDS011;3547;50.774;12.918;2022-11-27T12:18:47;5.30;;;4.00;;
7013;SDS011;3547;50.774;12.918;2022-11-27T12:49:53;14.20;;;6.50;;
7013;SDS011;3547;50.774;12.918;2022-11-27T12:52:24;11.67;;;3.57;;
7013;SDS011;3547;50.774;12.918;2022-11-27T12:54:58;5.63;;;3.23;;
7013;SDS011;3547;50.774;12.918;2022-11-27T12:57:33;5.17;;;3.40;;
7013;SDS011;3547;50.774;12.918;2022-11-27T13:00:16;11.33;;;5.00;;
7013;SDS011;3547;50.774;12.918;2022-11-27T13:03:00;5.53;;;3.50;;
7013;SDS011;3547;50.774;12.918;2022-11-27T13:05:28;5.20;;;3.07;;
7013;SDS011;3547;50.774;12.918;2022-11-27T13:10:48;3.77;;;2.63;;
7013;SDS011;3547;50.774;12.918;2022-11-27T13:13:32;4.73;;;2.77;;
7013;SDS011;3547;50.774;12.918;2022-11-27T13:16:08;3.47;;;2.70;;
7013;SDS011;3547;50.774;12.918;2022-11-27T13:18:53;5.77;;;3.00;;
7013;SDS011;3547;50.774;12.918;2022-11-27T13:21:22;3.23;;;2.43;;
7013;SDS011;3547;50.774;12.918;2022-11-27T13:23:51;3.33;;;2.27;;
7013;SDS011;3547;50.774;12.918;2022-11-27T13:26:29;4.23;;;2.60;;
7013;SDS011;3547;50.774;12.918;2022-11-27T13:29:05;4.07;;;2.60;;
7013;SDS011;3547;50.774;12.918;2022-11-27T13:31:53;4.90;;;2.43;;
7013;SDS011;3547;50.774;12.918;2022-11-27T13:34:22;5.87;;;2.60;;
7013;SDS011;3547;50.774;12.918;2022-11-27T13:37:01;4.10;;;2.70;;
7013;SDS011;3547;50.774;12.918;2022-11-27T13:39:34;3.57;;;2.63;;
7013;SDS011;3547;50.774;12.918;2022-11-27T13:45:06;3.37;;;2.40;;
7013;SDS011;3547;50.774;12.918;2022-11-27T13:47:37;5.27;;;2.73;;
7013;SDS011;3547;50.774;12.918;2022-11-27T13:50:08;6.13;;;2.87;;
7013;SDS011;3547;50.774;12.918;2022-11-27T13:52:37;4.37;;;2.63;;
7013;SDS011;3547;50.774;12.918;2022-11-27T13:55:38;4.27;;;2.80;;
7013;SDS011;3547;50.774;12.918;2022-11-27T13:58:26;3.17;;;2.23;;
7013;SDS011;3547;50.774;12.918;2022-11-27T14:00:55;4.20;;;2.70;;
7013;SDS011;3547;50.774;12.918;2022-11-27T14:03:24;3.93;;;2.17;;
7013;SDS011;3547;50.774;12.918;2022-11-27T14:05:52;2.80;;;2.13;;
7013;SDS011;3547;50.774;12.918;2022-11-27T14:08:27;3.77;;;2.67;;
7013;SDS011;3547;50.774;12.918;2022-11-27T14:11:09;3.87;;;2.27;;
7013;SDS011;3547;50.774;12.918;2022-11-27T14:13:38;4.33;;;2.73;;
7013;SDS011;3547;50.774;12.918;2022-11-27T14:18:58;4.40;;;2.63;;
7013;SDS011;3547;50.774;12.918;2022-11-27T14:21:34;6.00;;;3.20;;
7013;SDS011;3547;50.774;12.918;2022-11-27T14:27:15;4.50;;;2.23;;
7013;SDS011;3547;50.774;12.918;2022-11-27T14:29:47;4.10;;;2.20;;
7013;SDS011;3547;50.774;12.918;2022-11-27T14:32:15;3.90;;;2.97;;
7013;SDS011;3547;50.774;12.918;2022-11-27T14:34:42;3.90;;;2.33;;
7013;SDS011;3547;50.774;12.918;2022-11-27T14:37:25;6.77;;;3.07;;
7013;SDS011;3547;50.774;12.918;2022-11-27T14:39:52;8.23;;;2.80;;
7013;SDS011;3547;50.774;12.918;2022-11-27T14:42:24;6.57;;;3.10;;
7013;SDS011;3547;50.774;12.918;2022-11-27T14:45:02;6.13;;;3.03;;
7013;SDS011;3547;50.774;12.918;2022-11-27T14:47:30;3.77;;;2.90;;
7013;SDS011;3547;50.774;12.918;2022-11-27T14:49:57;3.13;;;2.67;;
7013;SDS011;3547;50.774;12.918;2022-11-27T14:52:23;3.37;;;2.60;;
7013;SDS011;3547;50.774;12.918;2022-11-27T14:54:50;3.90;;;2.47;;
7013;SDS011;3547;50.774;12.918;2022-11-27T14:57:26;3.00;;;2.40;;
7013;SDS011;3547;50.774;12.918;2022-11-27T15:00:02;3.97;;;2.60;;
7013;SDS011;3547;50.774;12.918;2022-11-27T15:02:38;3.67;;;2.10;;
7013;SDS011;3547;50.774;12.918;2022-11-27T15:05:04;2.80;;;2.37;;
7013;SDS011;3547;50.774;12.918;2022-11-27T15:07:32;5.70;;;3.00;;
7013;SDS011;3547;50.774;12.918;2022-11-27T15:10:02;5.20;;;3.10;;
7013;SDS011;3547;50.774;12.918;2022-11-27T15:12:44;6.00;;;3.30;;
7013;SDS011;3547;50.774;12.918;2022-11-27T15:15:19;5.20;;;3.20;;
7013;SDS011;3547;50.774;12.918;2022-11-27T15:21:11;4.30;;;2.67;;
7013;SDS011;3547;50.774;12.918;2022-11-27T15:23:43;4.10;;;2.20;;
7013;SDS011;3547;50.774;12.918;2022-11-27T15:26:11;3.23;;;2.93;;
7013;SDS011;3547;50.774;12.918;2022-11-27T15:28:54;4.23;;;2.90;;
7013;SDS011;3547;50.774;12.918;2022-11-27T15:31:31;3.70;;;2.50;;
7013;SDS011;3547;50.774;12.918;2022-11-27T15:36:48;3.83;;;2.87;;
7013;SDS011;3547;50.774;12.918;2022-11-27T15:39:28;4.57;;;2.63;;
7013;SDS011;3547;50.774;12.918;2022-11-27T15:42:09;11.50;;;3.53;;
7013;SDS011;3547;50.774;12.918;2022-11-27T15:44:36;5.50;;;3.90;;
7013;SDS011;3547;50.774;12.918;2022-11-27T15:47:03;9.97;;;7.63;;
7013;SDS011;3547;50.774;12.918;2022-11-27T15:49:30;10.60;;;5.13;;
7013;SDS011;3547;50.774;12.918;2022-11-27T15:51:57;6.80;;;4.50;;
7013;SDS011;3547;50.774;12.918;2022-11-27T15:54:23;9.47;;;4.17;;
7013;SDS011;3547;50.774;12.918;2022-11-27T15:56:50;6.13;;;3.80;;
7013;SDS011;3547;50.774;12.918;2022-11-27T15:59:16;4.77;;;3.40;;
7013;SDS011;3547;50.774;12.918;2022-11-27T16:01:45;4.33;;;3.07;;
7013;SDS011;3547;50.774;12.918;2022-11-27T16:04:11;6.20;;;3.10;;
7013;SDS011;3547;50.774;12.918;2022-11-27T16:06:37;3.40;;;2.80;;
7013;SDS011;3547;50.774;12.918;2022-11-27T16:09:03;5.40;;;3.27;;
7013;SDS011;3547;50.774;12.918;2022-11-27T16:11:30;6.07;;;4.93;;
7013;SDS011;3547;50.774;12.918;2022-11-27T16:13:57;10.87;;;6.67;;
7013;SDS011;3547;50.774;12.918;2022-11-27T16:16:23;7.80;;;5.47;;
7013;SDS011;3547;50.774;12.918;2022-11-27T16:18:50;10.00;;;7.40;;
7013;SDS011;3547;50.774;12.918;2022-11-27T16:21:16;8.53;;;6.50;;
7013;SDS011;3547;50.774;12.918;2022-11-27T16:23:43;9.17;;;6.93;;
7013;SDS011;3547;50.774;12.918;2022-11-27T16:26:09;8.97;;;6.23;;
7013;SDS011;3547;50.774;12.918;2022-11-27T16:28:37;8.17;;;5.30;;
7013;SDS011;3547;50.774;12.918;2022-11-27T16:31:06;9.87;;;3.80;;
7013;SDS011;3547;50.774;12.918;2022-11-27T16:33:34;6.10;;;3.63;;
7013;SDS011;3547;50.774;12.918;2022-11-27T16:36:04;10.03;;;4.07;;
7013;SDS011;3547;50.774;12.918;2022-11-27T16:38:35;6.33;;;3.83;;
7013;SDS011;3547;50.774;12.918;2022-11-27T16:41:02;5.30;;;2.90;;
7013;SDS011;3547;50.774;12.918;2022-11-27T16:43:34;4.70;;;3.73;;
7013;SDS011;3547;50.774;12.918;2022-11-27T16:46:03;4.07;;;3.30;;
7013;SDS011;3547;50.774;12.918;2022-11-27T16:48:31;4.70;;;3.50;;
7013;SDS011;3547;50.774;12.918;2022-11-27T16:51:03;4.83;;;3.80;;
7013;SDS011;3547;50.774;12.918;2022-11-27T16:53:30;6.83;;;3.90;;
7013;SDS011;3547;50.774;12.918;2022-11-27T16:55:57;7.70;;;3.70;;
7013;SDS011;3547;50.774;12.918;2022-11-27T16:58:23;4.70;;;3.60;;
7013;SDS011;3547;50.774;12.918;2022-11-27T17:00:49;7.70;;;4.73;;
7013;SDS011;3547;50.774;12.918;2022-11-27T17:03:15;7.70;;;3.30;;
7013;SDS011;3547;50.774;12.918;2022-11-27T17:05:41;7.77;;;3.70;;
7013;SDS011;3547;50.774;12.918;2022-11-27T17:08:08;6.90;;;3.83;;
7013;SDS011;3547;50.774;12.918;2022-11-27T17:10:34;5.17;;;3.97;;
7013;SDS011;3547;50.774;12.918;2022-11-27T17:13:00;10.57;;;4.20;;
7013;SDS011;3547;50.774;12.918;2022-11-27T17:15:26;6.87;;;3.87;;
7013;SDS011;3547;50.774;12.918;2022-11-27T17:17:53;5.37;;;3.67;;
7013;SDS011;3547;50.774;12.918;2022-11-27T17:20:22;10.33;;;4.23;;
7013;SDS011;3547;50.774;12.918;2022-11-27T17:22:48;7.07;;;3.97;;
7013;SDS011;3547;50.774;12.918;2022-11-27T17:25:14;7.80;;;4.30;;
7013;SDS011;3547;50.774;12.918;2022-11-27T17:27:40;6.60;;;4.27;;
7013;SDS011;3547;50.774;12.918;2022-11-27T17:30:07;4.90;;;3.33;;
7013;SDS011;3547;50.774;12.918;2022-11-27T17:32:33;7.50;;;4.00;;